Anassa M — SVA6658 — position and weather

sailwx.info

Track history (hours):
 
Tides and Currents Weather Stations Pressure Air Temp Water Temp Dewpoint Dewpoint Depression Visibility Wind Speed Wind Dir Waves Ship Positions

Anassa M

Last reported at 2018-May-25 06:29 UTC. Time now 2018-May-25 06:38 UTC.
Position N 40°51' E 024°42'.

Length 102 m; draft 2.4 m.

Type: Passenger vessel. MMSI: 239925700.

Date/timePositionNaut miles runAvg speedWind from/ knotsBaromVisibWave heightAir tempDewpointWater temp
2018-May-25 06:29N 40°51' E 024°42'0 0.0
2018-May-25 05:59N 40°51' E 024°42'0 0.0
2018-May-25 05:29N 40°51' E 024°42'0 0.0
2018-May-25 04:59N 40°51' E 024°42'0 0.0
2018-May-25 04:29N 40°51' E 024°42'0 0.0
2018-May-25 03:59N 40°51' E 024°42'0 0.0
2018-May-25 03:26N 40°51' E 024°42'0 0.0
2018-May-25 02:59N 40°51' E 024°42'0 0.0
2018-May-25 02:29N 40°51' E 024°42'0 0.0
2018-May-25 01:59N 40°51' E 024°42'0 0.0
2018-May-25 01:29N 40°51' E 024°42'0 0.0
2018-May-25 00:59N 40°51' E 024°42'0 0.0
2018-May-25 00:29N 40°51' E 024°42'0 0.0
2018-May-24 23:59N 40°51' E 024°42'0 0.0
2018-May-24 23:29N 40°51' E 024°42'0 0.0
2018-May-24 22:59N 40°51' E 024°42'0 0.0
2018-May-24 22:23N 40°51' E 024°42'0 0.0
2018-May-24 21:59N 40°51' E 024°42'0 0.0
2018-May-24 21:26N 40°51' E 024°42'0 0.0
2018-May-24 20:59N 40°51' E 024°42'0 0.0
2018-May-24 20:29N 40°51' E 024°42'0 0.0
2018-May-24 19:59N 40°51' E 024°42'0 0.0
2018-May-24 19:29N 40°51' E 024°42'0 0.0
2018-May-24 18:59N 40°51' E 024°42'0 0.0
2018-May-24 18:29N 40°51' E 024°42'0 0.0
2018-May-24 17:59N 40°51' E 024°42'0 0.0
2018-May-24 17:29N 40°51' E 024°42'0 0.0
2018-May-24 16:59N 40°51' E 024°42'0 0.0
2018-May-24 16:29N 40°51' E 024°42'0 0.0
2018-May-24 15:59N 40°51' E 024°42'0 0.0
2018-May-24 15:29N 40°51' E 024°42'0 0.0
2018-May-24 14:59N 40°51' E 024°42'0 0.0
2018-May-24 14:29N 40°51' E 024°42'0 0.0
2018-May-24 13:59N 40°51' E 024°42'0 0.0
2018-May-24 13:29N 40°51' E 024°42'4 0.9
2018-May-24 09:00N 40°47' E 024°42'4 7.6
2018-May-24 08:29N 40°51' E 024°42'0 0.0
2018-May-24 08:00N 40°51' E 024°42'2 4.6
2018-May-24 07:30N 40°49' E 024°41'3 5.0
2018-May-24 06:59N 40°47' E 024°42'0 0.0
2018-May-24 06:30N 40°47' E 024°42'4 6.9
2018-May-24 05:59N 40°50' E 024°41'1 2.8
2018-May-24 05:29N 40°51' E 024°42'0 1.0
2018-May-24 05:01N 40°52' E 024°42'5 9.7
2018-May-24 04:31N 40°47' E 024°42'3 6.2
2018-May-24 04:01N 40°48' E 024°38'4 7.8
2018-May-24 03:30N 40°46' E 024°35'5 9.7
2018-May-24 03:01N 40°47' E 024°29'510.3
2018-May-24 02:31N 40°49' E 024°22'3 1.5
2018-May-24 00:24N 40°51' E 024°19'0 0.0
2018-May-23 23:54N 40°51' E 024°19'0 0.0
2018-May-23 23:09N 40°51' E 024°19'0 0.0
2018-May-23 22:57N 40°51' E 024°19'0 0.0
2018-May-23 22:27N 40°51' E 024°19'0 0.0
2018-May-23 21:18N 40°51' E 024°19'0 0.0
2018-May-23 20:48N 40°51' E 024°19'0 0.0
2018-May-23 20:27N 40°51' E 024°19'0 0.0
2018-May-23 19:57N 40°51' E 024°19'0 0.0
2018-May-23 19:30N 40°51' E 024°19'0 0.0
2018-May-23 19:00N 40°51' E 024°19'0 0.0
2018-May-23 18:30N 40°51' E 024°19'0 0.0
2018-May-23 18:00N 40°51' E 024°19'0 0.0
2018-May-23 17:15N 40°51' E 024°19'0 0.0
2018-May-23 16:03N 40°51' E 024°19'0 0.0
2018-May-23 15:45N 40°51' E 024°19'0 0.0
2018-May-23 15:27N 40°51' E 024°19'0 0.0
2018-May-23 14:51N 40°51' E 024°19'0 0.0
2018-May-23 14:28N 40°51' E 024°19'4 9.4
2018-May-23 14:01N 40°49' E 024°24'510.8
2018-May-23 13:31N 40°47' E 024°31'3 6.6
2018-May-23 13:01N 40°46' E 024°35'0 0.0
2018-May-23 12:31N 40°46' E 024°35'1 2.9
2018-May-23 12:01N 40°47' E 024°35'5 9.2
2018-May-23 11:30N 40°47' E 024°42'3 5.8
2018-May-23 11:01N 40°50' E 024°41'2 3.4
2018-May-23 10:31N 40°51' E 024°42'0 0.6
2018-May-23 10:00N 40°52' E 024°42'5 9.1
2018-May-23 09:29N 40°47' E 024°42'0 0.0
2018-May-23 08:56N 40°47' E 024°42'0 0.0
2018-May-23 08:28N 40°47' E 024°42'0 0.0
2018-May-23 07:59N 40°47' E 024°42'0 0.0
2018-May-23 07:29N 40°47' E 024°42'1 1.9
2018-May-23 07:00N 40°48' E 024°42'4 7.8
2018-May-23 06:30N 40°51' E 024°42'0 0.0
2018-May-23 06:00N 40°51' E 024°42'2 4.4
2018-May-23 05:30N 40°49' E 024°41'3 4.9
2018-May-23 04:58N 40°47' E 024°42'0 0.5
2018-May-23 04:29N 40°47' E 024°43'0 0.0
2018-May-23 03:59N 40°47' E 024°43'0 0.0
2018-May-23 03:25N 40°47' E 024°43'0 0.0
2018-May-23 02:56N 40°47' E 024°43'0 0.0
2018-May-23 02:29N 40°47' E 024°43'0 0.0
2018-May-23 01:56N 40°47' E 024°43'0 0.0
2018-May-23 01:29N 40°47' E 024°43'0 0.0
2018-May-23 00:59N 40°47' E 024°43'0 0.0
2018-May-23 00:29N 40°47' E 024°43'0 0.0
2018-May-22 23:59N 40°47' E 024°43'0 0.0
2018-May-22 23:29N 40°47' E 024°43'0 0.0
2018-May-22 22:59N 40°47' E 024°43'0 0.0
2018-May-22 22:26N 40°47' E 024°43'0 0.0
2018-May-22 21:59N 40°47' E 024°43'0 0.0
2018-May-22 21:29N 40°47' E 024°43'0 0.0
2018-May-22 20:59N 40°47' E 024°43'0 0.0
2018-May-22 20:29N 40°47' E 024°43'0 0.0
2018-May-22 19:59N 40°47' E 024°43'0 0.0
2018-May-22 19:26N 40°47' E 024°43'0 0.0
2018-May-22 18:59N 40°47' E 024°43'0 0.0
2018-May-22 18:29N 40°47' E 024°43'0 0.0
2018-May-22 17:59N 40°47' E 024°43'0 0.0
2018-May-22 17:29N 40°47' E 024°43'0 0.0
2018-May-22 16:59N 40°47' E 024°43'0 0.0
2018-May-22 16:29N 40°47' E 024°43'0 0.0
2018-May-22 15:59N 40°47' E 024°43'0 0.0
2018-May-22 15:29N 40°47' E 024°43'0 0.0
2018-May-22 14:59N 40°47' E 024°43'0 0.0
2018-May-22 14:29N 40°47' E 024°43'0 0.0
2018-May-22 13:56N 40°47' E 024°43'0 0.0
2018-May-22 13:29N 40°47' E 024°43'0 0.0
2018-May-22 12:59N 40°47' E 024°43'0 0.0
2018-May-22 12:29N 40°47' E 024°43'0 0.0
2018-May-22 11:59N 40°47' E 024°43'0 0.0
2018-May-22 11:29N 40°47' E 024°43'0 0.0
2018-May-22 10:53N 40°47' E 024°43'0 0.0
2018-May-22 10:29N 40°47' E 024°43'0 0.0
2018-May-22 09:59N 40°47' E 024°43'0 0.0
2018-May-22 09:29N 40°47' E 024°43'0 0.0
2018-May-22 09:00N 40°47' E 024°43'1 1.8
2018-May-22 08:30N 40°47' E 024°42'4 8.1
2018-May-22 08:00N 40°51' E 024°42'0 0.0
2018-May-22 07:30N 40°51' E 024°42'2 4.4
2018-May-22 07:00N 40°49' E 024°42'3 4.7
2018-May-22 06:28N 40°47' E 024°42'0 0.0
2018-May-22 05:58N 40°47' E 024°42'0 0.0
2018-May-22 05:25N 40°47' E 024°42'0 0.0
2018-May-22 04:58N 40°47' E 024°42'0 0.0
2018-May-22 04:28N 40°47' E 024°42'3 7.2
2018-May-22 04:00N 40°50' E 024°41'2 3.8
2018-May-22 03:30N 40°51' E 024°42'1 2.5
2018-May-22 03:00N 40°51' E 024°41'4 6.7
2018-May-22 02:25N 40°47' E 024°42'0 0.0
2018-May-22 01:49N 40°47' E 024°42'0 0.0
2018-May-22 01:25N 40°47' E 024°42'0 0.0
2018-May-22 00:55N 40°47' E 024°42'0 0.0
2018-May-22 00:28N 40°47' E 024°42'0 0.0
2018-May-21 23:55N 40°47' E 024°42'0 0.0
2018-May-21 23:28N 40°47' E 024°42'0 0.0
2018-May-21 22:55N 40°47' E 024°42'0 0.0
2018-May-21 22:28N 40°47' E 024°42'0 0.0
2018-May-21 21:58N 40°47' E 024°42'0 0.0
2018-May-21 21:28N 40°47' E 024°42'0 0.0
2018-May-21 20:55N 40°47' E 024°42'0 0.0
2018-May-21 20:25N 40°47' E 024°42'0 0.0
2018-May-21 19:58N 40°47' E 024°42'0 0.0
2018-May-21 19:28N 40°47' E 024°42'0 0.0
2018-May-21 18:58N 40°47' E 024°42'0 0.0
2018-May-21 18:28N 40°47' E 024°42'0 0.0
2018-May-21 17:58N 40°47' E 024°42'0 0.0
2018-May-21 17:28N 40°47' E 024°42'0 0.0
2018-May-21 16:58N 40°47' E 024°42'0 0.0
2018-May-21 16:28N 40°47' E 024°42'0 0.0
2018-May-21 15:58N 40°47' E 024°42'0 0.0
2018-May-21 15:28N 40°47' E 024°42'0 0.0
2018-May-21 14:58N 40°47' E 024°42'0 0.0
2018-May-21 14:22N 40°47' E 024°42'0 0.0
2018-May-21 13:58N 40°47' E 024°42'0 0.0
2018-May-21 13:28N 40°47' E 024°42'0 0.0
2018-May-21 13:00N 40°47' E 024°42'3 6.8
2018-May-21 12:30N 40°50' E 024°41'2 3.3
2018-May-21 12:00N 40°51' E 024°42'0 0.5
2018-May-21 11:30N 40°52' E 024°42'5 9.3
2018-May-21 11:00N 40°47' E 024°42'0 0.0
2018-May-21 10:30N 40°47' E 024°42'0 0.0
2018-May-21 10:00N 40°47' E 024°42'0 0.0
2018-May-21 09:30N 40°47' E 024°42'0 0.0
2018-May-21 08:57N 40°47' E 024°42'0 0.0
2018-May-21 08:30N 40°47' E 024°42'1 1.7
2018-May-21 08:00N 40°48' E 024°42'4 7.8
2018-May-21 07:30N 40°51' E 024°42'0 0.0
2018-May-21 07:00N 40°51' E 024°42'2 4.5
2018-May-21 06:30N 40°49' E 024°41'3 5.2
2018-May-21 06:01N 40°47' E 024°42'0 0.0
2018-May-21 05:30N 40°47' E 024°42'0 0.0
2018-May-21 05:00N 40°47' E 024°42'0 0.0
2018-May-21 04:30N 40°47' E 024°42'3 6.4
2018-May-21 04:00N 40°50' E 024°41'2 3.4
2018-May-21 03:29N 40°51' E 024°42'1 2.0
2018-May-21 03:01N 40°51' E 024°41'5 9.1
2018-May-21 02:30N 40°47' E 024°42'0 0.0
2018-May-21 02:00N 40°47' E 024°42'0 0.0
2018-May-21 01:30N 40°47' E 024°42'0 0.0
2018-May-21 01:00N 40°47' E 024°42'0 0.0
2018-May-21 00:30N 40°47' E 024°42'0 0.0
2018-May-21 00:00N 40°47' E 024°42'0 0.0
2018-May-20 23:30N 40°47' E 024°42'0 0.0
2018-May-20 23:00N 40°47' E 024°42'0 0.0
2018-May-20 22:30N 40°47' E 024°42'0 0.0
2018-May-20 22:00N 40°47' E 024°42'0 0.0
2018-May-20 21:27N 40°47' E 024°42'0 0.0
2018-May-20 21:00N 40°47' E 024°42'0 0.0
2018-May-20 20:30N 40°47' E 024°42'0 0.0
2018-May-20 20:00N 40°47' E 024°42'0 0.0
2018-May-20 19:27N 40°47' E 024°42'0 0.0
2018-May-20 18:57N 40°47' E 024°42'0 0.0
2018-May-20 18:30N 40°47' E 024°42'0 0.0
2018-May-20 18:00N 40°47' E 024°42'0 0.0
2018-May-20 17:30N 40°47' E 024°42'0 0.0
2018-May-20 17:00N 40°47' E 024°42'0 0.0
2018-May-20 16:30N 40°47' E 024°42'0 0.0
2018-May-20 16:00N 40°47' E 024°42'0 0.0
2018-May-20 15:30N 40°47' E 024°42'0 0.0
2018-May-20 15:00N 40°47' E 024°42'0 0.0
2018-May-20 14:30N 40°47' E 024°42'0 0.0
2018-May-20 13:57N 40°47' E 024°42'0 0.0
2018-May-20 13:30N 40°47' E 024°42'0 0.0
2018-May-20 13:00N 40°47' E 024°42'0 0.0
2018-May-20 12:30N 40°47' E 024°42'1 1.1
2018-May-20 12:00N 40°47' E 024°42'4 8.5
2018-May-20 11:30N 40°51' E 024°42'0 0.0
2018-May-20 11:00N 40°51' E 024°42'2 4.3
2018-May-20 10:30N 40°49' E 024°41'3 5.4
2018-May-20 10:00N 40°47' E 024°42'0 0.0
2018-May-20 09:30N 40°47' E 024°42'0 0.0
2018-May-20 09:00N 40°47' E 024°42'0 0.0
2018-May-20 08:30N 40°47' E 024°42'0 0.0
2018-May-20 08:00N 40°47' E 024°42'0 0.0
2018-May-20 07:29N 40°47' E 024°42'0 0.0
2018-May-20 07:00N 40°47' E 024°42'0 0.0
2018-May-20 06:30N 40°47' E 024°42'3 6.7
2018-May-20 06:00N 40°50' E 024°41'2 3.2
2018-May-20 05:30N 40°51' E 024°42'0 0.9
2018-May-20 05:00N 40°52' E 024°42'5 7.5
2018-May-20 04:22N 40°47' E 024°42'0 0.5
2018-May-20 03:55N 40°47' E 024°43'0 0.0
2018-May-20 03:30N 40°47' E 024°43'0 0.0
2018-May-20 02:57N 40°47' E 024°43'0 0.0
2018-May-20 02:28N 40°47' E 024°43'0 0.0
2018-May-20 02:01N 40°47' E 024°43'0 0.0
2018-May-20 01:28N 40°47' E 024°43'0 0.0
2018-May-20 01:01N 40°47' E 024°43'0 0.0
2018-May-20 00:31N 40°47' E 024°43'0 0.0
2018-May-20 00:01N 40°47' E 024°43'0 0.0
2018-May-19 23:31N 40°47' E 024°43'0 0.0
2018-May-19 23:00N 40°47' E 024°43'0 0.0
2018-May-19 22:31N 40°47' E 024°43'0 0.0
2018-May-19 22:00N 40°47' E 024°43'0 0.0
2018-May-19 21:31N 40°47' E 024°43'0 0.0
2018-May-19 21:01N 40°47' E 024°43'0 0.0
2018-May-19 20:28N 40°47' E 024°43'0 0.0
2018-May-19 20:00N 40°47' E 024°43'0 0.0
2018-May-19 19:30N 40°47' E 024°43'0 0.0
2018-May-19 19:00N 40°47' E 024°43'0 0.0
2018-May-19 18:27N 40°47' E 024°43'0 0.0
2018-May-19 17:58N 40°47' E 024°43'0 0.0
2018-May-19 17:31N 40°47' E 024°43'0 0.0
2018-May-19 16:57N 40°47' E 024°43'0 0.0
2018-May-19 16:31N 40°47' E 024°43'0 0.0
2018-May-19 15:58N 40°47' E 024°43'0 0.0
2018-May-19 15:31N 40°47' E 024°43'0 0.0
2018-May-19 15:00N 40°47' E 024°43'0 0.0
2018-May-19 14:30N 40°47' E 024°43'0 0.0
2018-May-19 13:57N 40°47' E 024°43'0 0.0
2018-May-19 13:27N 40°47' E 024°43'0 0.0
2018-May-19 13:01N 40°47' E 024°43'0 0.0
2018-May-19 12:31N 40°47' E 024°43'0 0.0
2018-May-19 11:57N 40°47' E 024°43'0 0.0
2018-May-19 11:30N 40°47' E 024°43'0 0.0
2018-May-19 11:00N 40°47' E 024°43'0 0.0
2018-May-19 10:30N 40°47' E 024°43'0 0.0
2018-May-19 09:57N 40°47' E 024°43'0 0.0
2018-May-19 09:30N 40°47' E 024°43'0 0.0
2018-May-19 08:57N 40°47' E 024°43'0 0.0
2018-May-19 08:30N 40°47' E 024°43'0 0.0
2018-May-19 08:00N 40°47' E 024°43'0 0.0
2018-May-19 07:30N 40°47' E 024°43'0 0.8
2018-May-19 07:00N 40°47' E 024°42'4 8.8
2018-May-19 06:30N 40°51' E 024°42'0 0.0
2018-May-19 06:00N 40°51' E 024°42'2 4.2
2018-May-19 05:30N 40°49' E 024°41'2 4.8
2018-May-19 05:00N 40°47' E 024°42'4 8.7
2018-May-19 04:30N 40°51' E 024°42'0 0.0
2018-May-19 03:55N 40°51' E 024°42'0 0.0
2018-May-19 03:25N 40°51' E 024°42'0 0.0
2018-May-19 02:55N 40°51' E 024°42'0 0.0
2018-May-19 02:25N 40°51' E 024°42'0 0.0
2018-May-19 01:55N 40°51' E 024°42'0 0.0
2018-May-19 01:28N 40°51' E 024°42'0 0.0
2018-May-19 00:55N 40°51' E 024°42'0 0.0
2018-May-19 00:28N 40°51' E 024°42'0 0.0
2018-May-18 23:58N 40°51' E 024°42'0 0.0
2018-May-18 23:28N 40°51' E 024°42'0 0.0
2018-May-18 22:58N 40°51' E 024°42'0 0.0
2018-May-18 22:28N 40°51' E 024°42'0 0.0
2018-May-18 21:58N 40°51' E 024°42'0 0.0
2018-May-18 21:28N 40°51' E 024°42'0 0.0
2018-May-18 20:58N 40°51' E 024°42'0 0.0
2018-May-18 20:28N 40°51' E 024°42'0 0.0
2018-May-18 19:58N 40°51' E 024°42'0 0.0
2018-May-18 19:28N 40°51' E 024°42'0 0.0
2018-May-18 18:58N 40°51' E 024°42'1 1.4
2018-May-18 18:30N 40°52' E 024°41'5 9.8
2018-May-18 18:00N 40°47' E 024°42'0 0.0
2018-May-18 17:30N 40°47' E 024°42'0 0.0
2018-May-18 17:00N 40°47' E 024°42'0 0.0
2018-May-18 16:30N 40°47' E 024°42'0 0.0
2018-May-18 16:00N 40°47' E 024°42'0 0.0
2018-May-18 15:30N 40°47' E 024°42'0 0.0
2018-May-18 15:00N 40°47' E 024°42'0 0.0
2018-May-18 14:30N 40°47' E 024°42'3 6.5
2018-May-18 14:00N 40°50' E 024°41'2 3.2
2018-May-18 13:30N 40°51' E 024°42'0 0.5
2018-May-18 13:00N 40°52' E 024°42'5 9.5
2018-May-18 12:30N 40°47' E 024°42'1 2.2
2018-May-18 12:00N 40°48' E 024°42'4 7.2
2018-May-18 11:30N 40°51' E 024°42'0 0.0
2018-May-18 11:00N 40°51' E 024°42'0 0.0
2018-May-18 10:30N 40°51' E 024°42'0 0.0
2018-May-18 10:00N 40°51' E 024°42'0 0.0
2018-May-18 09:30N 40°51' E 024°42'0 0.0
2018-May-18 09:00N 40°51' E 024°42'0 0.0
2018-May-18 08:30N 40°51' E 024°42'0 0.0
2018-May-18 08:00N 40°51' E 024°42'0 0.0
2018-May-18 07:30N 40°51' E 024°42'0 0.0
2018-May-18 07:00N 40°51' E 024°42'0 0.0
2018-May-18 06:30N 40°51' E 024°42'0 0.0
2018-May-18 06:00N 40°51' E 024°42'0 0.0
2018-May-18 05:30N 40°51' E 024°42'0 0.0
2018-May-18 05:00N 40°51' E 024°42'0 0.0
2018-May-18 04:27N 40°51' E 024°42'0 0.0
2018-May-18 04:00N 40°51' E 024°42'0 0.0
2018-May-18 03:21N 40°51' E 024°42'0 0.0
2018-May-18 02:57N 40°51' E 024°42'0 0.0
2018-May-18 02:27N 40°51' E 024°42'0 0.0
2018-May-18 01:57N 40°51' E 024°42'0 0.0
2018-May-18 01:27N 40°51' E 024°42'0 0.0
2018-May-18 00:57N 40°51' E 024°42'0 0.0
2018-May-18 00:27N 40°51' E 024°42'0 0.0
2018-May-17 23:57N 40°51' E 024°42'0 0.0
2018-May-17 23:30N 40°51' E 024°42'0 0.0
2018-May-17 23:00N 40°51' E 024°42'0 0.0
2018-May-17 22:30N 40°51' E 024°42'0 0.0
2018-May-17 21:57N 40°51' E 024°42'0 0.0
2018-May-17 21:27N 40°51' E 024°42'0 0.0
2018-May-17 20:57N 40°51' E 024°42'0 0.0
2018-May-17 20:27N 40°51' E 024°42'0 0.0
2018-May-17 19:57N 40°51' E 024°42'0 0.0
2018-May-17 19:30N 40°51' E 024°42'0 0.0
2018-May-17 19:00N 40°51' E 024°42'0 0.0
2018-May-17 18:30N 40°51' E 024°42'0 0.0
2018-May-17 18:00N 40°51' E 024°42'0 0.0
2018-May-17 17:30N 40°51' E 024°42'0 0.0
2018-May-17 17:00N 40°51' E 024°42'0 0.0
2018-May-17 16:30N 40°51' E 024°42'0 0.0
2018-May-17 16:00N 40°51' E 024°42'0 0.0
2018-May-17 15:30N 40°51' E 024°42'0 0.0
2018-May-17 15:00N 40°51' E 024°42'0 0.0
2018-May-17 14:30N 40°51' E 024°42'0 0.0
2018-May-17 14:00N 40°51' E 024°42'0 0.0
2018-May-17 13:30N 40°51' E 024°42'0 0.0
2018-May-17 13:00N 40°51' E 024°42'0 0.0
2018-May-17 12:30N 40°51' E 024°42'0 0.0
2018-May-17 12:00N 40°51' E 024°42'0 0.0
2018-May-17 11:30N 40°51' E 024°42'0 0.0
2018-May-17 11:00N 40°51' E 024°42'0 0.0
2018-May-17 10:30N 40°51' E 024°42'0 0.0
2018-May-17 10:00N 40°51' E 024°42'1 2.8
2018-May-17 09:30N 40°50' E 024°41'3 6.3
2018-May-17 09:00N 40°47' E 024°42'4 8.5
2018-May-17 08:30N 40°51' E 024°42'0 0.0
2018-May-17 08:00N 40°51' E 024°42'2 4.4
2018-May-17 07:30N 40°49' E 024°41'3 4.9
2018-May-17 06:58N 40°47' E 024°42'0 0.0
2018-May-17 06:28N 40°47' E 024°42'0 0.0
2018-May-17 05:58N 40°47' E 024°42'0 0.0
2018-May-17 05:28N 40°47' E 024°42'0 0.0
2018-May-17 04:58N 40°47' E 024°42'0 0.0
2018-May-17 04:28N 40°47' E 024°42'3 7.0
2018-May-17 04:01N 40°50' E 024°41'2 3.5
2018-May-17 03:31N 40°51' E 024°42'1 1.8
2018-May-17 03:00N 40°51' E 024°41'4 9.1
2018-May-17 02:30N 40°47' E 024°42'0 0.0
2018-May-17 02:00N 40°47' E 024°42'0 0.0
2018-May-17 01:27N 40°47' E 024°42'0 0.0
2018-May-17 00:57N 40°47' E 024°42'0 0.0
2018-May-17 00:31N 40°47' E 024°42'0 0.0
2018-May-16 23:57N 40°47' E 024°42'0 0.0
2018-May-16 23:27N 40°47' E 024°42'0 0.0
2018-May-16 23:00N 40°47' E 024°42'0 0.0
2018-May-16 22:27N 40°47' E 024°42'0 0.0
2018-May-16 22:00N 40°47' E 024°42'0 0.0
2018-May-16 21:27N 40°47' E 024°42'0 0.0
2018-May-16 20:57N 40°47' E 024°42'0 0.0
2018-May-16 20:30N 40°47' E 024°42'0 0.0
2018-May-16 20:00N 40°47' E 024°42'0 0.0
2018-May-16 19:30N 40°47' E 024°42'0 0.0
2018-May-16 19:00N 40°47' E 024°42'0 0.0
2018-May-16 18:30N 40°47' E 024°42'0 0.0
2018-May-16 18:00N 40°47' E 024°42'0 0.0
2018-May-16 17:30N 40°47' E 024°42'0 0.0
2018-May-16 17:00N 40°47' E 024°42'0 0.0
2018-May-16 16:30N 40°47' E 024°42'0 0.0
2018-May-16 16:00N 40°47' E 024°42'0 0.0
2018-May-16 15:30N 40°47' E 024°42'0 0.0
2018-May-16 14:57N 40°47' E 024°42'0 0.0
2018-May-16 14:30N 40°47' E 024°42'0 0.0
2018-May-16 14:00N 40°47' E 024°42'0 0.0
2018-May-16 13:30N 40°47' E 024°42'0 0.0
2018-May-16 13:00N 40°47' E 024°42'0 0.0
2018-May-16 12:30N 40°47' E 024°42'0 0.0
2018-May-16 12:00N 40°47' E 024°42'0 0.0
2018-May-16 11:30N 40°47' E 024°42'0 0.0
2018-May-16 11:00N 40°47' E 024°42'0 0.0
2018-May-16 10:30N 40°47' E 024°42'0 0.0
2018-May-16 10:00N 40°47' E 024°42'0 0.0
2018-May-16 09:30N 40°47' E 024°42'0 0.0
2018-May-16 09:00N 40°47' E 024°42'0 0.0
2018-May-16 08:30N 40°47' E 024°42'0 0.0
2018-May-16 08:00N 40°47' E 024°42'1 1.2
2018-May-16 07:30N 40°47' E 024°42'4 8.2
2018-May-16 07:00N 40°51' E 024°42'0 0.0
2018-May-16 06:30N 40°51' E 024°42'2 4.4
2018-May-16 06:00N 40°49' E 024°41'3 5.2
2018-May-16 05:31N 40°47' E 024°42'0 0.0
2018-May-16 05:00N 40°47' E 024°42'0 0.0
2018-May-16 04:30N 40°47' E 024°42'0 0.0
2018-May-16 04:00N 40°47' E 024°42'1 1.4
2018-May-16 03:30N 40°47' E 024°42'4 7.9
2018-May-16 03:00N 40°51' E 024°42'0 0.0
2018-May-16 02:30N 40°51' E 024°42'0 0.0
2018-May-16 02:00N 40°51' E 024°42'0 0.0
2018-May-16 01:30N 40°51' E 024°42'0 0.0
2018-May-16 01:00N 40°51' E 024°42'0 0.0
2018-May-16 00:30N 40°51' E 024°42'0 0.0
2018-May-16 00:00N 40°51' E 024°42'0 0.0
2018-May-15 23:30N 40°51' E 024°42'0 0.0
2018-May-15 23:00N 40°51' E 024°42'0 0.0
2018-May-15 22:30N 40°51' E 024°42'0 0.0
2018-May-15 22:00N 40°51' E 024°42'0 0.0
2018-May-15 21:31N 40°51' E 024°42'0 0.0
2018-May-15 21:00N 40°51' E 024°42'0 0.0
2018-May-15 20:30N 40°51' E 024°42'0 0.0
2018-May-15 20:00N 40°51' E 024°42'0 0.0
2018-May-15 19:28N 40°51' E 024°42'0 0.0
2018-May-15 19:00N 40°51' E 024°42'0 0.0
2018-May-15 18:30N 40°51' E 024°42'0 0.0
2018-May-15 18:00N 40°51' E 024°42'0 0.0
2018-May-15 17:30N 40°51' E 024°42'0 0.0
2018-May-15 17:01N 40°51' E 024°42'2 4.7
2018-May-15 16:30N 40°49' E 024°41'2 4.7
2018-May-15 16:00N 40°47' E 024°42'3 6.9
2018-May-15 15:30N 40°50' E 024°41'1 2.9
2018-May-15 15:00N 40°51' E 024°42'1 1.3
2018-May-15 14:30N 40°52' E 024°41'5 9.1
2018-May-15 13:58N 40°47' E 024°42'0 0.6
2018-May-15 13:28N 40°47' E 024°43'0 0.0
2018-May-15 13:00N 40°47' E 024°43'0 0.0
2018-May-15 12:30N 40°47' E 024°43'  
Track history (hours):
 
Tides and Currents Weather Stations Pressure Air Temp Water Temp Dewpoint Dewpoint Depression Visibility Wind Speed Wind Dir Waves Ship Positions

Anassa M

Last reported at 2018-May-25 06:29 UTC. Time now 2018-May-25 06:38 UTC.
Position N 40°51' E 024°42'.

Length 102 m; draft 2.4 m.

Type: Passenger vessel. MMSI: 239925700.

Date/timePositionNaut miles runAvg speedWind from/ knotsBaromVisibWave heightAir tempDewpointWater temp
2018-May-25 06:29N 40°51' E 024°42'0 0.0
2018-May-25 05:59N 40°51' E 024°42'0 0.0
2018-May-25 05:29N 40°51' E 024°42'0 0.0
2018-May-25 04:59N 40°51' E 024°42'0 0.0
2018-May-25 04:29N 40°51' E 024°42'0 0.0
2018-May-25 03:59N 40°51' E 024°42'0 0.0
2018-May-25 03:26N 40°51' E 024°42'0 0.0
2018-May-25 02:59N 40°51' E 024°42'0 0.0
2018-May-25 02:29N 40°51' E 024°42'0 0.0
2018-May-25 01:59N 40°51' E 024°42'0 0.0
2018-May-25 01:29N 40°51' E 024°42'0 0.0
2018-May-25 00:59N 40°51' E 024°42'0 0.0
2018-May-25 00:29N 40°51' E 024°42'0 0.0
2018-May-24 23:59N 40°51' E 024°42'0 0.0
2018-May-24 23:29N 40°51' E 024°42'0 0.0
2018-May-24 22:59N 40°51' E 024°42'0 0.0
2018-May-24 22:23N 40°51' E 024°42'0 0.0
2018-May-24 21:59N 40°51' E 024°42'0 0.0
2018-May-24 21:26N 40°51' E 024°42'0 0.0
2018-May-24 20:59N 40°51' E 024°42'0 0.0
2018-May-24 20:29N 40°51' E 024°42'0 0.0
2018-May-24 19:59N 40°51' E 024°42'0 0.0
2018-May-24 19:29N 40°51' E 024°42'0 0.0
2018-May-24 18:59N 40°51' E 024°42'0 0.0
2018-May-24 18:29N 40°51' E 024°42'0 0.0
2018-May-24 17:59N 40°51' E 024°42'0 0.0
2018-May-24 17:29N 40°51' E 024°42'0 0.0
2018-May-24 16:59N 40°51' E 024°42'0 0.0
2018-May-24 16:29N 40°51' E 024°42'0 0.0
2018-May-24 15:59N 40°51' E 024°42'0 0.0
2018-May-24 15:29N 40°51' E 024°42'0 0.0
2018-May-24 14:59N 40°51' E 024°42'0 0.0
2018-May-24 14:29N 40°51' E 024°42'0 0.0
2018-May-24 13:59N 40°51' E 024°42'0 0.0
2018-May-24 13:29N 40°51' E 024°42'4 0.9
2018-May-24 09:00N 40°47' E 024°42'4 7.6
2018-May-24 08:29N 40°51' E 024°42'0 0.0
2018-May-24 08:00N 40°51' E 024°42'2 4.6
2018-May-24 07:30N 40°49' E 024°41'3 5.0
2018-May-24 06:59N 40°47' E 024°42'0 0.0
2018-May-24 06:30N 40°47' E 024°42'4 6.9
2018-May-24 05:59N 40°50' E 024°41'1 2.8
2018-May-24 05:29N 40°51' E 024°42'0 1.0
2018-May-24 05:01N 40°52' E 024°42'5 9.7
2018-May-24 04:31N 40°47' E 024°42'3 6.2
2018-May-24 04:01N 40°48' E 024°38'4 7.8
2018-May-24 03:30N 40°46' E 024°35'5 9.7
2018-May-24 03:01N 40°47' E 024°29'510.3
2018-May-24 02:31N 40°49' E 024°22'3 1.5
2018-May-24 00:24N 40°51' E 024°19'0 0.0
2018-May-23 23:54N 40°51' E 024°19'0 0.0
2018-May-23 23:09N 40°51' E 024°19'0 0.0
2018-May-23 22:57N 40°51' E 024°19'0 0.0
2018-May-23 22:27N 40°51' E 024°19'0 0.0
2018-May-23 21:18N 40°51' E 024°19'0 0.0
2018-May-23 20:48N 40°51' E 024°19'0 0.0
2018-May-23 20:27N 40°51' E 024°19'0 0.0
2018-May-23 19:57N 40°51' E 024°19'0 0.0
2018-May-23 19:30N 40°51' E 024°19'0 0.0
2018-May-23 19:00N 40°51' E 024°19'0 0.0
2018-May-23 18:30N 40°51' E 024°19'0 0.0
2018-May-23 18:00N 40°51' E 024°19'0 0.0
2018-May-23 17:15N 40°51' E 024°19'0 0.0
2018-May-23 16:03N 40°51' E 024°19'0 0.0
2018-May-23 15:45N 40°51' E 024°19'0 0.0
2018-May-23 15:27N 40°51' E 024°19'0 0.0
2018-May-23 14:51N 40°51' E 024°19'0 0.0
2018-May-23 14:28N 40°51' E 024°19'4 9.4
2018-May-23 14:01N 40°49' E 024°24'510.8
2018-May-23 13:31N 40°47' E 024°31'3 6.6
2018-May-23 13:01N 40°46' E 024°35'0 0.0
2018-May-23 12:31N 40°46' E 024°35'1 2.9
2018-May-23 12:01N 40°47' E 024°35'5 9.2
2018-May-23 11:30N 40°47' E 024°42'3 5.8
2018-May-23 11:01N 40°50' E 024°41'2 3.4
2018-May-23 10:31N 40°51' E 024°42'0 0.6
2018-May-23 10:00N 40°52' E 024°42'5 9.1
2018-May-23 09:29N 40°47' E 024°42'0 0.0
2018-May-23 08:56N 40°47' E 024°42'0 0.0
2018-May-23 08:28N 40°47' E 024°42'0 0.0
2018-May-23 07:59N 40°47' E 024°42'0 0.0
2018-May-23 07:29N 40°47' E 024°42'1 1.9
2018-May-23 07:00N 40°48' E 024°42'4 7.8
2018-May-23 06:30N 40°51' E 024°42'0 0.0
2018-May-23 06:00N 40°51' E 024°42'2 4.4
2018-May-23 05:30N 40°49' E 024°41'3 4.9
2018-May-23 04:58N 40°47' E 024°42'0 0.5
2018-May-23 04:29N 40°47' E 024°43'0 0.0
2018-May-23 03:59N 40°47' E 024°43'0 0.0
2018-May-23 03:25N 40°47' E 024°43'0 0.0
2018-May-23 02:56N 40°47' E 024°43'0 0.0
2018-May-23 02:29N 40°47' E 024°43'0 0.0
2018-May-23 01:56N 40°47' E 024°43'0 0.0
2018-May-23 01:29N 40°47' E 024°43'0 0.0
2018-May-23 00:59N 40°47' E 024°43'0 0.0
2018-May-23 00:29N 40°47' E 024°43'0 0.0
2018-May-22 23:59N 40°47' E 024°43'0 0.0
2018-May-22 23:29N 40°47' E 024°43'0 0.0
2018-May-22 22:59N 40°47' E 024°43'0 0.0
2018-May-22 22:26N 40°47' E 024°43'0 0.0
2018-May-22 21:59N 40°47' E 024°43'0 0.0
2018-May-22 21:29N 40°47' E 024°43'0 0.0
2018-May-22 20:59N 40°47' E 024°43'0 0.0
2018-May-22 20:29N 40°47' E 024°43'0 0.0
2018-May-22 19:59N 40°47' E 024°43'0 0.0
2018-May-22 19:26N 40°47' E 024°43'0 0.0
2018-May-22 18:59N 40°47' E 024°43'0 0.0
2018-May-22 18:29N 40°47' E 024°43'0 0.0
2018-May-22 17:59N 40°47' E 024°43'0 0.0
2018-May-22 17:29N 40°47' E 024°43'0 0.0
2018-May-22 16:59N 40°47' E 024°43'0 0.0
2018-May-22 16:29N 40°47' E 024°43'0 0.0
2018-May-22 15:59N 40°47' E 024°43'0 0.0
2018-May-22 15:29N 40°47' E 024°43'0 0.0
2018-May-22 14:59N 40°47' E 024°43'0 0.0
2018-May-22 14:29N 40°47' E 024°43'0 0.0
2018-May-22 13:56N 40°47' E 024°43'0 0.0
2018-May-22 13:29N 40°47' E 024°43'0 0.0
2018-May-22 12:59N 40°47' E 024°43'0 0.0
2018-May-22 12:29N 40°47' E 024°43'0 0.0
2018-May-22 11:59N 40°47' E 024°43'0 0.0
2018-May-22 11:29N 40°47' E 024°43'0 0.0
2018-May-22 10:53N 40°47' E 024°43'0 0.0
2018-May-22 10:29N 40°47' E 024°43'0 0.0
2018-May-22 09:59N 40°47' E 024°43'0 0.0
2018-May-22 09:29N 40°47' E 024°43'0 0.0
2018-May-22 09:00N 40°47' E 024°43'1 1.8
2018-May-22 08:30N 40°47' E 024°42'4 8.1
2018-May-22 08:00N 40°51' E 024°42'0 0.0
2018-May-22 07:30N 40°51' E 024°42'2 4.4
2018-May-22 07:00N 40°49' E 024°42'3 4.7
2018-May-22 06:28N 40°47' E 024°42'0 0.0
2018-May-22 05:58N 40°47' E 024°42'0 0.0
2018-May-22 05:25N 40°47' E 024°42'0 0.0
2018-May-22 04:58N 40°47' E 024°42'0 0.0
2018-May-22 04:28N 40°47' E 024°42'3 7.2
2018-May-22 04:00N 40°50' E 024°41'2 3.8
2018-May-22 03:30N 40°51' E 024°42'1 2.5
2018-May-22 03:00N 40°51' E 024°41'4 6.7
2018-May-22 02:25N 40°47' E 024°42'0 0.0
2018-May-22 01:49N 40°47' E 024°42'0 0.0
2018-May-22 01:25N 40°47' E 024°42'0 0.0
2018-May-22 00:55N 40°47' E 024°42'0 0.0
2018-May-22 00:28N 40°47' E 024°42'0 0.0
2018-May-21 23:55N 40°47' E 024°42'0 0.0
2018-May-21 23:28N 40°47' E 024°42'0 0.0
2018-May-21 22:55N 40°47' E 024°42'0 0.0
2018-May-21 22:28N 40°47' E 024°42'0 0.0
2018-May-21 21:58N 40°47' E 024°42'0 0.0
2018-May-21 21:28N 40°47' E 024°42'0 0.0
2018-May-21 20:55N 40°47' E 024°42'0 0.0
2018-May-21 20:25N 40°47' E 024°42'0 0.0
2018-May-21 19:58N 40°47' E 024°42'0 0.0
2018-May-21 19:28N 40°47' E 024°42'0 0.0
2018-May-21 18:58N 40°47' E 024°42'0 0.0
2018-May-21 18:28N 40°47' E 024°42'0 0.0
2018-May-21 17:58N 40°47' E 024°42'0 0.0
2018-May-21 17:28N 40°47' E 024°42'0 0.0
2018-May-21 16:58N 40°47' E 024°42'0 0.0
2018-May-21 16:28N 40°47' E 024°42'0 0.0
2018-May-21 15:58N 40°47' E 024°42'0 0.0
2018-May-21 15:28N 40°47' E 024°42'0 0.0
2018-May-21 14:58N 40°47' E 024°42'0 0.0
2018-May-21 14:22N 40°47' E 024°42'0 0.0
2018-May-21 13:58N 40°47' E 024°42'0 0.0
2018-May-21 13:28N 40°47' E 024°42'0 0.0
2018-May-21 13:00N 40°47' E 024°42'3 6.8
2018-May-21 12:30N 40°50' E 024°41'2 3.3
2018-May-21 12:00N 40°51' E 024°42'0 0.5
2018-May-21 11:30N 40°52' E 024°42'5 9.3
2018-May-21 11:00N 40°47' E 024°42'0 0.0
2018-May-21 10:30N 40°47' E 024°42'0 0.0
2018-May-21 10:00N 40°47' E 024°42'0 0.0
2018-May-21 09:30N 40°47' E 024°42'0 0.0
2018-May-21 08:57N 40°47' E 024°42'0 0.0
2018-May-21 08:30N 40°47' E 024°42'1 1.7
2018-May-21 08:00N 40°48' E 024°42'4 7.8
2018-May-21 07:30N 40°51' E 024°42'0 0.0
2018-May-21 07:00N 40°51' E 024°42'2 4.5
2018-May-21 06:30N 40°49' E 024°41'3 5.2
2018-May-21 06:01N 40°47' E 024°42'0 0.0
2018-May-21 05:30N 40°47' E 024°42'0 0.0
2018-May-21 05:00N 40°47' E 024°42'0 0.0
2018-May-21 04:30N 40°47' E 024°42'3 6.4
2018-May-21 04:00N 40°50' E 024°41'2 3.4
2018-May-21 03:29N 40°51' E 024°42'1 2.0
2018-May-21 03:01N 40°51' E 024°41'5 9.1
2018-May-21 02:30N 40°47' E 024°42'0 0.0
2018-May-21 02:00N 40°47' E 024°42'0 0.0
2018-May-21 01:30N 40°47' E 024°42'0 0.0
2018-May-21 01:00N 40°47' E 024°42'0 0.0
2018-May-21 00:30N 40°47' E 024°42'0 0.0
2018-May-21 00:00N 40°47' E 024°42'0 0.0
2018-May-20 23:30N 40°47' E 024°42'0 0.0
2018-May-20 23:00N 40°47' E 024°42'0 0.0
2018-May-20 22:30N 40°47' E 024°42'0 0.0
2018-May-20 22:00N 40°47' E 024°42'0 0.0
2018-May-20 21:27N 40°47' E 024°42'0 0.0
2018-May-20 21:00N 40°47' E 024°42'0 0.0
2018-May-20 20:30N 40°47' E 024°42'0 0.0
2018-May-20 20:00N 40°47' E 024°42'0 0.0
2018-May-20 19:27N 40°47' E 024°42'0 0.0
2018-May-20 18:57N 40°47' E 024°42'0 0.0
2018-May-20 18:30N 40°47' E 024°42'0 0.0
2018-May-20 18:00N 40°47' E 024°42'0 0.0
2018-May-20 17:30N 40°47' E 024°42'0 0.0
2018-May-20 17:00N 40°47' E 024°42'0 0.0
2018-May-20 16:30N 40°47' E 024°42'0 0.0
2018-May-20 16:00N 40°47' E 024°42'0 0.0
2018-May-20 15:30N 40°47' E 024°42'0 0.0
2018-May-20 15:00N 40°47' E 024°42'0 0.0
2018-May-20 14:30N 40°47' E 024°42'0 0.0
2018-May-20 13:57N 40°47' E 024°42'0 0.0
2018-May-20 13:30N 40°47' E 024°42'0 0.0
2018-May-20 13:00N 40°47' E 024°42'0 0.0
2018-May-20 12:30N 40°47' E 024°42'1 1.1
2018-May-20 12:00N 40°47' E 024°42'4 8.5
2018-May-20 11:30N 40°51' E 024°42'0 0.0
2018-May-20 11:00N 40°51' E 024°42'2 4.3
2018-May-20 10:30N 40°49' E 024°41'3 5.4
2018-May-20 10:00N 40°47' E 024°42'0 0.0
2018-May-20 09:30N 40°47' E 024°42'0 0.0
2018-May-20 09:00N 40°47' E 024°42'0 0.0
2018-May-20 08:30N 40°47' E 024°42'0 0.0
2018-May-20 08:00N 40°47' E 024°42'0 0.0
2018-May-20 07:29N 40°47' E 024°42'0 0.0
2018-May-20 07:00N 40°47' E 024°42'0 0.0
2018-May-20 06:30N 40°47' E 024°42'3 6.7
2018-May-20 06:00N 40°50' E 024°41'2 3.2
2018-May-20 05:30N 40°51' E 024°42'0 0.9
2018-May-20 05:00N 40°52' E 024°42'5 7.5
2018-May-20 04:22N 40°47' E 024°42'0 0.5
2018-May-20 03:55N 40°47' E 024°43'0 0.0
2018-May-20 03:30N 40°47' E 024°43'0 0.0
2018-May-20 02:57N 40°47' E 024°43'0 0.0
2018-May-20 02:28N 40°47' E 024°43'0 0.0
2018-May-20 02:01N 40°47' E 024°43'0 0.0
2018-May-20 01:28N 40°47' E 024°43'0 0.0
2018-May-20 01:01N 40°47' E 024°43'0 0.0
2018-May-20 00:31N 40°47' E 024°43'0 0.0
2018-May-20 00:01N 40°47' E 024°43'0 0.0
2018-May-19 23:31N 40°47' E 024°43'0 0.0
2018-May-19 23:00N 40°47' E 024°43'0 0.0
2018-May-19 22:31N 40°47' E 024°43'0 0.0
2018-May-19 22:00N 40°47' E 024°43'0 0.0
2018-May-19 21:31N 40°47' E 024°43'0 0.0
2018-May-19 21:01N 40°47' E 024°43'0 0.0
2018-May-19 20:28N 40°47' E 024°43'0 0.0
2018-May-19 20:00N 40°47' E 024°43'0 0.0
2018-May-19 19:30N 40°47' E 024°43'0 0.0
2018-May-19 19:00N 40°47' E 024°43'0 0.0
2018-May-19 18:27N 40°47' E 024°43'0 0.0
2018-May-19 17:58N 40°47' E 024°43'0 0.0
2018-May-19 17:31N 40°47' E 024°43'0 0.0
2018-May-19 16:57N 40°47' E 024°43'0 0.0
2018-May-19 16:31N 40°47' E 024°43'0 0.0
2018-May-19 15:58N 40°47' E 024°43'0 0.0
2018-May-19 15:31N 40°47' E 024°43'0 0.0
2018-May-19 15:00N 40°47' E 024°43'0 0.0
2018-May-19 14:30N 40°47' E 024°43'0 0.0
2018-May-19 13:57N 40°47' E 024°43'0 0.0
2018-May-19 13:27N 40°47' E 024°43'0 0.0
2018-May-19 13:01N 40°47' E 024°43'0 0.0
2018-May-19 12:31N 40°47' E 024°43'0 0.0
2018-May-19 11:57N 40°47' E 024°43'0 0.0
2018-May-19 11:30N 40°47' E 024°43'0 0.0
2018-May-19 11:00N 40°47' E 024°43'0 0.0
2018-May-19 10:30N 40°47' E 024°43'0 0.0
2018-May-19 09:57N 40°47' E 024°43'0 0.0
2018-May-19 09:30N 40°47' E 024°43'0 0.0
2018-May-19 08:57N 40°47' E 024°43'0 0.0
2018-May-19 08:30N 40°47' E 024°43'0 0.0
2018-May-19 08:00N 40°47' E 024°43'0 0.0
2018-May-19 07:30N 40°47' E 024°43'0 0.8
2018-May-19 07:00N 40°47' E 024°42'4 8.8
2018-May-19 06:30N 40°51' E 024°42'0 0.0
2018-May-19 06:00N 40°51' E 024°42'2 4.2
2018-May-19 05:30N 40°49' E 024°41'2 4.8
2018-May-19 05:00N 40°47' E 024°42'4 8.7
2018-May-19 04:30N 40°51' E 024°42'0 0.0
2018-May-19 03:55N 40°51' E 024°42'0 0.0
2018-May-19 03:25N 40°51' E 024°42'0 0.0
2018-May-19 02:55N 40°51' E 024°42'0 0.0
2018-May-19 02:25N 40°51' E 024°42'0 0.0
2018-May-19 01:55N 40°51' E 024°42'0 0.0
2018-May-19 01:28N 40°51' E 024°42'0 0.0
2018-May-19 00:55N 40°51' E 024°42'0 0.0
2018-May-19 00:28N 40°51' E 024°42'0 0.0
2018-May-18 23:58N 40°51' E 024°42'0 0.0
2018-May-18 23:28N 40°51' E 024°42'0 0.0
2018-May-18 22:58N 40°51' E 024°42'0 0.0
2018-May-18 22:28N 40°51' E 024°42'0 0.0
2018-May-18 21:58N 40°51' E 024°42'0 0.0
2018-May-18 21:28N 40°51' E 024°42'0 0.0
2018-May-18 20:58N 40°51' E 024°42'0 0.0
2018-May-18 20:28N 40°51' E 024°42'0 0.0
2018-May-18 19:58N 40°51' E 024°42'0 0.0
2018-May-18 19:28N 40°51' E 024°42'0 0.0
2018-May-18 18:58N 40°51' E 024°42'1 1.4
2018-May-18 18:30N 40°52' E 024°41'5 9.8
2018-May-18 18:00N 40°47' E 024°42'0 0.0
2018-May-18 17:30N 40°47' E 024°42'0 0.0
2018-May-18 17:00N 40°47' E 024°42'0 0.0
2018-May-18 16:30N 40°47' E 024°42'0 0.0
2018-May-18 16:00N 40°47' E 024°42'0 0.0
2018-May-18 15:30N 40°47' E 024°42'0 0.0
2018-May-18 15:00N 40°47' E 024°42'0 0.0
2018-May-18 14:30N 40°47' E 024°42'3 6.5
2018-May-18 14:00N 40°50' E 024°41'2 3.2
2018-May-18 13:30N 40°51' E 024°42'0 0.5
2018-May-18 13:00N 40°52' E 024°42'5 9.5
2018-May-18 12:30N 40°47' E 024°42'1 2.2
2018-May-18 12:00N 40°48' E 024°42'4 7.2
2018-May-18 11:30N 40°51' E 024°42'0 0.0
2018-May-18 11:00N 40°51' E 024°42'0 0.0
2018-May-18 10:30N 40°51' E 024°42'0 0.0
2018-May-18 10:00N 40°51' E 024°42'0 0.0
2018-May-18 09:30N 40°51' E 024°42'0 0.0
2018-May-18 09:00N 40°51' E 024°42'0 0.0
2018-May-18 08:30N 40°51' E 024°42'0 0.0
2018-May-18 08:00N 40°51' E 024°42'0 0.0
2018-May-18 07:30N 40°51' E 024°42'0 0.0
2018-May-18 07:00N 40°51' E 024°42'0 0.0
2018-May-18 06:30N 40°51' E 024°42'0 0.0
2018-May-18 06:00N 40°51' E 024°42'0 0.0
2018-May-18 05:30N 40°51' E 024°42'0 0.0
2018-May-18 05:00N 40°51' E 024°42'0 0.0
2018-May-18 04:27N 40°51' E 024°42'0 0.0
2018-May-18 04:00N 40°51' E 024°42'0 0.0
2018-May-18 03:21N 40°51' E 024°42'0 0.0
2018-May-18 02:57N 40°51' E 024°42'0 0.0
2018-May-18 02:27N 40°51' E 024°42'0 0.0
2018-May-18 01:57N 40°51' E 024°42'0 0.0
2018-May-18 01:27N 40°51' E 024°42'0 0.0
2018-May-18 00:57N 40°51' E 024°42'0 0.0
2018-May-18 00:27N 40°51' E 024°42'0 0.0
2018-May-17 23:57N 40°51' E 024°42'0 0.0
2018-May-17 23:30N 40°51' E 024°42'0 0.0
2018-May-17 23:00N 40°51' E 024°42'0 0.0
2018-May-17 22:30N 40°51' E 024°42'0 0.0
2018-May-17 21:57N 40°51' E 024°42'0 0.0
2018-May-17 21:27N 40°51' E 024°42'0 0.0
2018-May-17 20:57N 40°51' E 024°42'0 0.0
2018-May-17 20:27N 40°51' E 024°42'0 0.0
2018-May-17 19:57N 40°51' E 024°42'0 0.0
2018-May-17 19:30N 40°51' E 024°42'0 0.0
2018-May-17 19:00N 40°51' E 024°42'0 0.0
2018-May-17 18:30N 40°51' E 024°42'0 0.0
2018-May-17 18:00N 40°51' E 024°42'0 0.0
2018-May-17 17:30N 40°51' E 024°42'0 0.0
2018-May-17 17:00N 40°51' E 024°42'0 0.0
2018-May-17 16:30N 40°51' E 024°42'0 0.0
2018-May-17 16:00N 40°51' E 024°42'0 0.0
2018-May-17 15:30N 40°51' E 024°42'0 0.0
2018-May-17 15:00N 40°51' E 024°42'0 0.0
2018-May-17 14:30N 40°51' E 024°42'0 0.0
2018-May-17 14:00N 40°51' E 024°42'0 0.0
2018-May-17 13:30N 40°51' E 024°42'0 0.0
2018-May-17 13:00N 40°51' E 024°42'0 0.0
2018-May-17 12:30N 40°51' E 024°42'0 0.0
2018-May-17 12:00N 40°51' E 024°42'0 0.0
2018-May-17 11:30N 40°51' E 024°42'0 0.0
2018-May-17 11:00N 40°51' E 024°42'0 0.0
2018-May-17 10:30N 40°51' E 024°42'0 0.0
2018-May-17 10:00N 40°51' E 024°42'1 2.8
2018-May-17 09:30N 40°50' E 024°41'3 6.3
2018-May-17 09:00N 40°47' E 024°42'4 8.5
2018-May-17 08:30N 40°51' E 024°42'0 0.0
2018-May-17 08:00N 40°51' E 024°42'2 4.4
2018-May-17 07:30N 40°49' E 024°41'3 4.9
2018-May-17 06:58N 40°47' E 024°42'0 0.0
2018-May-17 06:28N 40°47' E 024°42'0 0.0
2018-May-17 05:58N 40°47' E 024°42'0 0.0
2018-May-17 05:28N 40°47' E 024°42'0 0.0
2018-May-17 04:58N 40°47' E 024°42'0 0.0
2018-May-17 04:28N 40°47' E 024°42'3 7.0
2018-May-17 04:01N 40°50' E 024°41'2 3.5
2018-May-17 03:31N 40°51' E 024°42'1 1.8
2018-May-17 03:00N 40°51' E 024°41'4 9.1
2018-May-17 02:30N 40°47' E 024°42'0 0.0
2018-May-17 02:00N 40°47' E 024°42'0 0.0
2018-May-17 01:27N 40°47' E 024°42'0 0.0
2018-May-17 00:57N 40°47' E 024°42'0 0.0
2018-May-17 00:31N 40°47' E 024°42'0 0.0
2018-May-16 23:57N 40°47' E 024°42'0 0.0
2018-May-16 23:27N 40°47' E 024°42'0 0.0
2018-May-16 23:00N 40°47' E 024°42'0 0.0
2018-May-16 22:27N 40°47' E 024°42'0 0.0
2018-May-16 22:00N 40°47' E 024°42'0 0.0
2018-May-16 21:27N 40°47' E 024°42'0 0.0
2018-May-16 20:57N 40°47' E 024°42'0 0.0
2018-May-16 20:30N 40°47' E 024°42'0 0.0
2018-May-16 20:00N 40°47' E 024°42'0 0.0
2018-May-16 19:30N 40°47' E 024°42'0 0.0
2018-May-16 19:00N 40°47' E 024°42'0 0.0
2018-May-16 18:30N 40°47' E 024°42'0 0.0
2018-May-16 18:00N 40°47' E 024°42'0 0.0
2018-May-16 17:30N 40°47' E 024°42'0 0.0
2018-May-16 17:00N 40°47' E 024°42'0 0.0
2018-May-16 16:30N 40°47' E 024°42'0 0.0
2018-May-16 16:00N 40°47' E 024°42'0 0.0
2018-May-16 15:30N 40°47' E 024°42'0 0.0
2018-May-16 14:57N 40°47' E 024°42'0 0.0
2018-May-16 14:30N 40°47' E 024°42'0 0.0
2018-May-16 14:00N 40°47' E 024°42'0 0.0
2018-May-16 13:30N 40°47' E 024°42'0 0.0
2018-May-16 13:00N 40°47' E 024°42'0 0.0
2018-May-16 12:30N 40°47' E 024°42'0 0.0
2018-May-16 12:00N 40°47' E 024°42'0 0.0
2018-May-16 11:30N 40°47' E 024°42'0 0.0
2018-May-16 11:00N 40°47' E 024°42'0 0.0
2018-May-16 10:30N 40°47' E 024°42'0 0.0
2018-May-16 10:00N 40°47' E 024°42'0 0.0
2018-May-16 09:30N 40°47' E 024°42'0 0.0
2018-May-16 09:00N 40°47' E 024°42'0 0.0
2018-May-16 08:30N 40°47' E 024°42'0 0.0
2018-May-16 08:00N 40°47' E 024°42'1 1.2
2018-May-16 07:30N 40°47' E 024°42'4 8.2
2018-May-16 07:00N 40°51' E 024°42'0 0.0
2018-May-16 06:30N 40°51' E 024°42'2 4.4
2018-May-16 06:00N 40°49' E 024°41'3 5.2
2018-May-16 05:31N 40°47' E 024°42'0 0.0
2018-May-16 05:00N 40°47' E 024°42'0 0.0
2018-May-16 04:30N 40°47' E 024°42'0 0.0
2018-May-16 04:00N 40°47' E 024°42'1 1.4
2018-May-16 03:30N 40°47' E 024°42'4 7.9
2018-May-16 03:00N 40°51' E 024°42'0 0.0
2018-May-16 02:30N 40°51' E 024°42'0 0.0
2018-May-16 02:00N 40°51' E 024°42'0 0.0
2018-May-16 01:30N 40°51' E 024°42'0 0.0
2018-May-16 01:00N 40°51' E 024°42'0 0.0
2018-May-16 00:30N 40°51' E 024°42'0 0.0
2018-May-16 00:00N 40°51' E 024°42'0 0.0
2018-May-15 23:30N 40°51' E 024°42'0 0.0
2018-May-15 23:00N 40°51' E 024°42'0 0.0
2018-May-15 22:30N 40°51' E 024°42'0 0.0
2018-May-15 22:00N 40°51' E 024°42'0 0.0
2018-May-15 21:31N 40°51' E 024°42'0 0.0
2018-May-15 21:00N 40°51' E 024°42'0 0.0
2018-May-15 20:30N 40°51' E 024°42'0 0.0
2018-May-15 20:00N 40°51' E 024°42'0 0.0
2018-May-15 19:28N 40°51' E 024°42'0 0.0
2018-May-15 19:00N 40°51' E 024°42'0 0.0
2018-May-15 18:30N 40°51' E 024°42'0 0.0
2018-May-15 18:00N 40°51' E 024°42'0 0.0
2018-May-15 17:30N 40°51' E 024°42'0 0.0
2018-May-15 17:01N 40°51' E 024°42'2 4.7
2018-May-15 16:30N 40°49' E 024°41'2 4.7
2018-May-15 16:00N 40°47' E 024°42'3 6.9
2018-May-15 15:30N 40°50' E 024°41'1 2.9
2018-May-15 15:00N 40°51' E 024°42'1 1.3
2018-May-15 14:30N 40°52' E 024°41'5 9.1
2018-May-15 13:58N 40°47' E 024°42'0 0.6
2018-May-15 13:28N 40°47' E 024°43'0 0.0
2018-May-15 13:00N 40°47' E 024°43'0 0.0
2018-May-15 12:30N 40°47' E 024°43'  

Dump ship's entire track history